Huvudsida
METAR-TAF:

METAR-TAF

Flygplatser :

Piacenza, Italien

latitud: 44-55N, longitud: 009-44E, höjd: 134 m

Aktuellt väderrapport

Denna rapport gjordes för 5 timmar och 26 minuter sedan, klockan 17:55 UTC
Vind 3 kt från nord/nordost
Temperatur 9°C
Fuktighet 100%
Tryck 1010 hPa
Sikt: 1200 m
Brutna moln på en höjd av 900 ft
Spridda moln på en höjd av 1000 ft
lätt regn, fuktdis

METAR: LIMS 111755Z 02003KT 1200 R30/1400 R12/1200 -RA BR BKN009 SCT010 09/09 Q1010

Tid: 00:21 (23:21 UTC)


TAF: saknas

Aktuella väderrapporter och prognoser från 4000 flygplatser (METAR- och TAF-rapporter).

De tillgängliga stationerna syns som gula och röda prickar på kartan.

För musen över prickarna för att se namnen på stationerna.

Klicka sedan för att få väderrapporter och prognoser.

För att ändra kartan: Klicka på de gröna knapparna med ett svart kors på för att zooma in; den gröna knappen med ett streck på för att zooma ut; eller på de gröna pilarna för angränsande kartor.


METAR-TAF: